createdAt,value
2019-01-15T00:00:20.404Z,9.45
2019-01-15T00:02:49.787Z,11.73
2019-01-15T00:05:18.999Z,4.08
2019-01-15T00:07:48.047Z,10.45
2019-01-15T00:10:17.215Z,4.92
2019-01-15T00:12:46.444Z,6.62
2019-01-15T00:15:15.549Z,8.45
2019-01-15T00:17:44.883Z,9.05
2019-01-15T00:20:14.084Z,9.33
2019-01-15T00:22:43.180Z,6.78
2019-01-15T00:25:12.327Z,14.20
2019-01-15T00:27:41.414Z,8.43
2019-01-15T00:30:12.728Z,10.20
2019-01-15T00:32:42.380Z,8.65
2019-01-15T00:35:11.396Z,8.85
2019-01-15T00:37:40.454Z,8.20
2019-01-15T00:40:14.992Z,6.83
2019-01-15T00:42:44.100Z,10.95
2019-01-15T00:45:14.250Z,11.38
2019-01-15T00:47:43.345Z,11.20
2019-01-15T00:50:13.603Z,7.47
2019-01-15T00:52:42.921Z,9.93
2019-01-15T00:55:12.352Z,9.73
2019-01-15T00:57:41.487Z,7.03
2019-01-15T01:00:16.432Z,8.13
2019-01-15T01:02:45.657Z,9.08
2019-01-15T01:05:15.242Z,10.55
2019-01-15T01:07:44.411Z,13.95
2019-01-15T01:10:14.116Z,8.23
2019-01-15T01:12:43.270Z,8.63
2019-01-15T01:15:13.425Z,9.63
2019-01-15T01:17:42.584Z,11.85
2019-01-15T01:20:13.153Z,5.55
2019-01-15T01:22:42.306Z,9.80
2019-01-15T01:25:11.943Z,13.13
2019-01-15T01:27:41.091Z,12.28
2019-01-15T01:30:16.310Z,7.92
2019-01-15T01:32:45.335Z,7.10
2019-01-15T01:35:14.642Z,8.48
2019-01-15T01:37:43.802Z,9.93
2019-01-15T01:40:14.932Z,8.83
2019-01-15T01:42:43.976Z,12.82
2019-01-15T01:45:13.404Z,6.25
2019-01-15T01:47:42.350Z,14.47
2019-01-15T01:50:11.980Z,10.00
2019-01-15T01:52:41.028Z,13.58
2019-01-15T01:55:11.302Z,10.23
2019-01-15T01:57:40.116Z,10.58
2019-01-15T02:00:20.191Z,7.75
2019-01-15T02:02:49.137Z,6.95
2019-01-15T02:05:17.974Z,11.10
2019-01-15T02:07:46.932Z,13.08
2019-01-15T02:10:17.503Z,9.75
2019-01-15T02:12:46.716Z,11.10
2019-01-15T02:15:17.656Z,12.45
2019-01-15T02:17:47.182Z,9.28
2019-01-15T02:20:17.013Z,17.62
2019-01-15T02:22:46.020Z,7.70
2019-01-15T02:25:15.075Z,5.17
2019-01-15T02:27:45.575Z,14.03
2019-01-15T02:30:17.402Z,7.60
2019-01-15T02:32:46.440Z,8.40
2019-01-15T02:35:15.694Z,9.90
2019-01-15T02:37:45.267Z,7.30
2019-01-15T02:40:14.277Z,5.37
2019-01-15T02:42:46.609Z,10.53
2019-01-15T02:45:15.099Z,11.40
2019-01-15T02:47:44.256Z,11.18
2019-01-15T02:50:15.145Z,12.90
2019-01-15T02:52:44.050Z,10.85
2019-01-15T02:55:13.153Z,7.58
2019-01-15T02:57:42.051Z,8.85
2019-01-15T03:00:19.516Z,11.80
2019-01-15T03:02:48.359Z,12.53
2019-01-15T03:05:17.573Z,9.93
2019-01-15T03:07:46.519Z,8.45
2019-01-15T03:10:16.656Z,6.05
2019-01-15T03:12:54.735Z,10.82
2019-01-15T03:15:18.992Z,9.70
2019-01-15T03:17:48.241Z,8.30
2019-01-15T03:20:17.328Z,11.83
2019-01-15T03:22:46.530Z,16.37
2019-01-15T03:25:15.620Z,16.65
2019-01-15T03:27:44.591Z,5.12
2019-01-15T03:30:18.094Z,15.30
2019-01-15T03:32:47.278Z,10.35
2019-01-15T03:35:16.492Z,8.83
2019-01-15T03:37:45.428Z,16.77
2019-01-15T03:40:17.473Z,5.42
2019-01-15T03:42:46.834Z,12.85
2019-01-15T03:45:16.118Z,9.88
2019-01-15T03:47:45.230Z,7.92
2019-01-15T03:50:14.247Z,9.85
2019-01-15T03:52:43.515Z,14.35
2019-01-15T03:55:12.940Z,11.90
2019-01-15T03:57:41.962Z,12.60
2019-01-15T04:00:17.060Z,9.35
2019-01-15T04:02:46.174Z,14.70
2019-01-15T04:05:16.221Z,7.78
2019-01-15T04:07:45.533Z,15.10
2019-01-15T04:10:14.561Z,11.63
2019-01-15T04:12:43.511Z,14.58
2019-01-15T04:15:12.600Z,17.95
2019-01-15T04:17:41.490Z,7.15
2019-01-15T04:20:13.125Z,9.80
2019-01-15T04:22:44.427Z,10.95
2019-01-15T04:25:13.680Z,13.65
2019-01-15T04:27:42.635Z,13.05
2019-01-15T04:30:14.444Z,12.33
2019-01-15T04:32:43.493Z,13.80
2019-01-15T04:35:13.140Z,12.47
2019-01-15T04:37:42.284Z,11.68
2019-01-15T04:40:13.894Z,8.13
2019-01-15T04:42:42.987Z,16.40
2019-01-15T04:45:13.354Z,12.03
2019-01-15T04:47:42.912Z,11.65
2019-01-15T04:50:12.052Z,8.85
2019-01-15T04:52:42.617Z,13.28
2019-01-15T04:55:11.821Z,10.05
2019-01-15T04:57:40.870Z,18.12
2019-01-15T05:00:13.238Z,9.00
2019-01-15T05:02:42.674Z,13.10
2019-01-15T05:05:11.739Z,10.40
2019-01-15T05:07:40.632Z,9.03
2019-01-15T05:10:11.358Z,10.88
2019-01-15T05:12:40.200Z,13.88
2019-01-15T05:15:13.028Z,12.43
2019-01-15T05:17:45.606Z,7.75
2019-01-15T05:20:15.452Z,7.67
2019-01-15T05:22:44.809Z,8.45
2019-01-15T05:25:16.351Z,17.25
2019-01-15T05:27:45.175Z,9.93
2019-01-15T05:30:19.614Z,17.77
2019-01-15T05:32:48.390Z,23.38
2019-01-15T05:35:17.678Z,8.78
2019-01-15T05:37:46.878Z,12.03
2019-01-15T05:40:16.280Z,11.83
2019-01-15T05:42:45.182Z,10.10
2019-01-15T05:45:20.367Z,12.58
2019-01-15T05:47:50.130Z,17.48
2019-01-15T05:50:22.600Z,13.93
2019-01-15T05:52:51.350Z,13.03
2019-01-15T05:55:20.407Z,17.40
2019-01-15T05:57:49.195Z,10.95
2019-01-15T06:00:18.106Z,10.82
2019-01-15T06:02:46.873Z,10.95
2019-01-15T06:05:16.042Z,10.82
2019-01-15T06:07:44.912Z,12.55
2019-01-15T06:10:13.891Z,13.72
2019-01-15T06:12:42.928Z,14.83
2019-01-15T06:15:12.314Z,12.95
2019-01-15T06:17:41.123Z,13.50
2019-01-15T06:20:12.682Z,10.20
2019-01-15T06:22:41.460Z,8.73
2019-01-15T06:25:10.442Z,7.15
2019-01-15T06:27:39.368Z,13.38
2019-01-15T06:30:10.955Z,11.83
2019-01-15T06:32:39.763Z,10.55
2019-01-15T06:35:08.612Z,12.58
2019-01-15T06:37:37.416Z,13.48
2019-01-15T06:40:07.900Z,7.10
2019-01-15T06:42:37.148Z,11.12
2019-01-15T06:45:09.285Z,16.02
2019-01-15T06:47:38.039Z,11.50
2019-01-15T06:50:07.210Z,16.00
2019-01-15T06:52:35.991Z,12.03
2019-01-15T06:55:05.449Z,18.45
2019-01-15T06:57:34.211Z,17.35
2019-01-15T07:00:03.076Z,12.88
2019-01-15T07:02:31.874Z,8.93
2019-01-15T07:05:00.668Z,11.50
2019-01-15T07:07:29.488Z,12.23
2019-01-15T07:09:58.359Z,8.45
2019-01-15T07:12:27.196Z,11.65
2019-01-15T07:14:55.963Z,14.90
2019-01-15T07:17:24.731Z,6.90
2019-01-15T07:19:53.478Z,12.15
2019-01-15T07:22:22.563Z,11.80
2019-01-15T07:24:51.358Z,12.55
2019-01-15T07:27:20.106Z,7.72
2019-01-15T07:29:48.876Z,12.58
2019-01-15T07:32:17.868Z,10.15
2019-01-15T07:34:46.701Z,9.83
2019-01-15T07:37:15.581Z,12.70
2019-01-15T07:39:44.335Z,10.80
2019-01-15T07:42:13.092Z,13.08
2019-01-15T07:44:42.091Z,8.83
2019-01-15T07:47:10.842Z,10.90
2019-01-15T07:49:39.958Z,7.25
2019-01-15T07:52:08.731Z,9.20
2019-01-15T07:54:37.720Z,13.30
2019-01-15T07:57:06.458Z,9.03
2019-01-15T07:59:35.224Z,13.08
2019-01-15T08:02:04.176Z,9.65
2019-01-15T08:04:32.923Z,6.58
2019-01-15T08:07:01.933Z,9.50
2019-01-15T08:09:30.764Z,11.38
2019-01-15T08:11:59.552Z,9.13
2019-01-15T08:14:28.319Z,14.78
2019-01-15T08:16:57.279Z,7.00
2019-01-15T08:19:26.023Z,9.08
2019-01-15T08:21:54.989Z,15.03
2019-01-15T08:24:23.759Z,5.67
2019-01-15T08:26:52.616Z,12.03
2019-01-15T08:29:21.358Z,5.97
2019-01-15T08:31:50.086Z,11.40
2019-01-15T08:34:18.832Z,6.95
2019-01-15T08:36:47.666Z,10.53
2019-01-15T08:39:16.765Z,8.53
2019-01-15T08:41:45.588Z,9.38
2019-01-15T08:44:19.159Z,5.47
2019-01-15T08:46:45.176Z,7.05
2019-01-15T08:49:13.978Z,4.45
2019-01-15T08:51:43.211Z,7.03
2019-01-15T08:54:12.571Z,9.23
2019-01-15T08:56:41.339Z,5.85
2019-01-15T08:59:10.130Z,7.37
2019-01-15T09:01:38.908Z,15.05
2019-01-15T09:04:07.637Z,12.43
2019-01-15T09:06:36.483Z,6.00
2019-01-15T09:09:07.807Z,8.78
2019-01-15T09:11:36.543Z,6.30
2019-01-15T09:14:05.535Z,9.73
2019-01-15T09:16:34.432Z,6.33
2019-01-15T09:19:03.275Z,6.50
2019-01-15T09:21:32.419Z,4.80
2019-01-15T09:24:01.215Z,6.37
2019-01-15T09:26:29.971Z,7.58
2019-01-15T09:28:58.938Z,6.50
2019-01-15T09:31:27.716Z,1.75
2019-01-15T09:33:56.836Z,5.83
2019-01-15T09:36:25.638Z,7.58
2019-01-15T09:38:54.456Z,6.50
2019-01-15T09:41:23.681Z,3.58
2019-01-15T09:43:52.779Z,4.10
2019-01-15T09:46:21.587Z,6.62
2019-01-15T09:48:50.593Z,7.00
2019-01-15T09:51:19.420Z,6.85
2019-01-15T09:53:48.178Z,6.47
2019-01-15T09:56:16.943Z,8.40
2019-01-15T09:58:45.714Z,6.08
2019-01-15T10:01:14.595Z,10.70
2019-01-15T10:03:43.347Z,6.35
2019-01-15T10:06:12.122Z,4.75
2019-01-15T10:08:40.971Z,8.45
2019-01-15T10:11:09.811Z,4.90
2019-01-15T10:13:38.809Z,8.15
2019-01-15T10:16:07.690Z,4.70
2019-01-15T10:18:36.465Z,9.78
2019-01-15T10:21:05.178Z,7.65
2019-01-15T10:23:33.930Z,11.70
2019-01-15T10:26:02.696Z,5.65
2019-01-15T10:28:31.535Z,7.65
2019-01-15T10:31:34.523Z,5.37
2019-01-15T10:34:14.948Z,4.97
2019-01-15T10:36:42.447Z,8.03
2019-01-15T10:39:12.619Z,4.25
2019-01-15T10:41:41.508Z,10.20
2019-01-15T10:44:10.427Z,8.03
2019-01-15T10:46:39.182Z,9.10
2019-01-15T10:49:07.995Z,6.55
2019-01-15T10:51:36.802Z,7.30
2019-01-15T10:54:05.685Z,7.47
2019-01-15T10:56:34.835Z,10.93
2019-01-15T10:59:04.035Z,5.87
2019-01-15T11:01:32.824Z,6.05
2019-01-15T11:04:01.843Z,5.83
2019-01-15T11:06:30.751Z,5.97
2019-01-15T11:08:59.788Z,4.60
2019-01-15T11:11:28.644Z,6.78
2019-01-15T11:13:57.434Z,4.65
2019-01-15T11:16:26.411Z,9.83
2019-01-15T11:18:55.599Z,11.00
2019-01-15T11:21:24.388Z,6.92
2019-01-15T11:23:53.154Z,9.80
2019-01-15T11:26:22.779Z,9.40
2019-01-15T11:28:51.531Z,8.58
2019-01-15T11:31:20.299Z,6.72
2019-01-15T11:33:49.338Z,8.38
2019-01-15T11:36:18.086Z,12.10
2019-01-15T11:38:46.857Z,8.60
2019-01-15T11:41:15.656Z,8.93
2019-01-15T11:43:44.400Z,8.93
2019-01-15T11:46:13.266Z,10.53
2019-01-15T11:48:42.052Z,8.53
2019-01-15T11:51:11.124Z,8.13
2019-01-15T11:53:39.893Z,8.20
2019-01-15T11:56:08.684Z,8.53
2019-01-15T11:58:37.719Z,9.93
2019-01-15T12:01:32.210Z,7.87
2019-01-15T12:04:35.112Z,7.40
2019-01-15T12:07:31.986Z,6.00
2019-01-15T12:10:31.917Z,8.08
2019-01-15T12:13:17.124Z,10.08
2019-01-15T12:16:00.367Z,11.05
2019-01-15T12:18:51.339Z,10.90
2019-01-15T12:21:41.705Z,10.20
2019-01-15T12:24:28.139Z,7.78
2019-01-15T12:27:10.096Z,7.80
2019-01-15T12:30:13.025Z,9.25
2019-01-15T12:32:53.450Z,8.38
2019-01-15T12:35:47.223Z,10.82
2019-01-15T12:38:34.104Z,8.25
2019-01-15T12:41:20.576Z,9.15
2019-01-15T12:44:06.850Z,10.65
2019-01-15T12:46:48.801Z,9.30
2019-01-15T12:49:55.067Z,11.38
2019-01-15T12:52:46.171Z,11.38
2019-01-15T12:55:32.588Z,10.93
2019-01-15T12:58:29.591Z,8.83
2019-01-15T13:01:17.483Z,11.20
2019-01-15T13:04:03.807Z,14.15
2019-01-15T13:06:54.938Z,8.58
2019-01-15T13:09:35.684Z,16.35
2019-01-15T13:12:26.710Z,12.75
2019-01-15T13:15:13.175Z,15.13
2019-01-15T13:17:59.830Z,16.35
2019-01-15T13:20:40.823Z,12.07
2019-01-15T13:23:29.351Z,11.80
2019-01-15T13:26:20.323Z,14.15
2019-01-15T13:29:08.279Z,15.35
2019-01-15T13:32:07.974Z,13.48
2019-01-15T13:34:54.351Z,15.88
2019-01-15T13:37:38.965Z,13.25
2019-01-15T13:40:27.870Z,16.35
2019-01-15T13:43:21.718Z,11.35
2019-01-15T13:46:12.711Z,13.45
2019-01-15T13:49:00.661Z,17.23
2019-01-15T13:51:38.742Z,13.75
2019-01-15T13:54:33.264Z,16.27
2019-01-15T13:57:15.926Z,12.28
2019-01-15T14:00:02.275Z,13.48
2019-01-15T14:02:49.000Z,14.18
2019-01-15T14:05:35.590Z,13.60
2019-01-15T14:08:19.085Z,16.52
2019-01-15T14:11:05.849Z,11.20
2019-01-15T14:13:49.482Z,11.15
2019-01-15T14:16:30.039Z,10.75
2019-01-15T14:19:08.908Z,12.63
2019-01-15T14:22:05.977Z,13.28
2019-01-15T14:24:58.594Z,10.40
2019-01-15T14:27:45.556Z,11.73
2019-01-15T14:30:33.857Z,14.55
2019-01-15T14:33:13.661Z,12.90
2019-01-15T14:36:00.342Z,11.53
2019-01-15T14:38:41.482Z,15.63
2019-01-15T14:41:22.573Z,17.02
2019-01-15T14:44:19.702Z,17.60
2019-01-15T14:47:07.094Z,14.13
2019-01-15T14:49:53.803Z,13.85
2019-01-15T14:52:41.716Z,16.45
2019-01-15T14:55:26.471Z,16.82
2019-01-15T14:58:17.467Z,12.65
2019-01-15T15:01:11.152Z,16.73
2019-01-15T15:04:08.705Z,12.47
2019-01-15T15:06:55.092Z,12.47
2019-01-15T15:09:46.165Z,16.17
2019-01-15T15:12:23.549Z,16.05
2019-01-15T15:15:04.015Z,19.90
2019-01-15T15:17:52.933Z,15.00
2019-01-15T15:20:37.620Z,14.55
2019-01-15T15:23:25.593Z,16.42
2019-01-15T15:26:20.173Z,12.70
2019-01-15T15:29:17.263Z,18.67
2019-01-15T15:32:03.847Z,15.45
2019-01-15T15:34:57.990Z,17.87
2019-01-15T15:38:03.948Z,16.93
2019-01-15T15:40:50.290Z,14.60
2019-01-15T15:43:36.983Z,15.28
2019-01-15T15:46:27.782Z,15.20
2019-01-15T15:49:22.429Z,16.95
2019-01-15T15:52:10.492Z,15.32
2019-01-15T15:55:04.833Z,16.23
2019-01-15T15:57:52.876Z,14.83
2019-01-15T16:00:39.946Z,17.92
2019-01-15T16:03:28.430Z,22.02
2019-01-15T16:06:15.308Z,15.53
2019-01-15T16:09:07.644Z,20.08
2019-01-15T16:11:58.675Z,18.62
2019-01-15T16:14:45.203Z,18.48
2019-01-15T16:17:31.903Z,20.92
2019-01-15T16:20:19.931Z,33.40
2019-01-15T16:23:07.312Z,21.23
2019-01-15T16:25:58.416Z,21.02
2019-01-15T16:28:49.984Z,18.75
2019-01-15T16:31:42.225Z,19.10
2019-01-15T16:34:34.111Z,20.95
2019-01-15T16:37:27.951Z,18.32
2019-01-15T16:40:08.568Z,20.70
2019-01-15T16:43:05.727Z,18.32
2019-01-15T16:45:52.374Z,17.17
2019-01-15T16:48:40.870Z,18.95
2019-01-15T16:51:17.633Z,16.15
2019-01-15T16:54:12.368Z,22.42
2019-01-15T16:56:57.252Z,24.63
2019-01-15T16:59:43.280Z,15.70
2019-01-15T17:02:31.683Z,20.55
2019-01-15T17:05:18.558Z,20.08
2019-01-15T17:08:05.035Z,16.62
2019-01-15T17:10:45.094Z,17.17
2019-01-15T17:13:40.209Z,17.35
2019-01-15T17:16:33.522Z,18.23
2019-01-15T17:19:26.994Z,18.10
2019-01-15T17:22:06.186Z,18.70
2019-01-15T17:24:51.211Z,20.23
2019-01-15T17:27:34.399Z,14.28
2019-01-15T17:30:22.921Z,17.30
2019-01-15T17:33:34.570Z,18.73
2019-01-15T17:36:21.890Z,19.75
2019-01-15T17:39:15.103Z,17.35
2019-01-15T17:42:03.174Z,18.85
2019-01-15T17:44:51.355Z,20.60
2019-01-15T17:47:31.964Z,15.93
2019-01-15T17:50:25.891Z,17.27
2019-01-15T17:53:17.258Z,15.72
2019-01-15T17:56:03.858Z,17.27
2019-01-15T17:58:53.008Z,14.83
2019-01-15T18:01:47.098Z,19.05
2019-01-15T18:04:24.464Z,19.05
2019-01-15T18:07:15.440Z,18.80
2019-01-15T18:10:18.819Z,20.55
2019-01-15T18:12:59.659Z,23.15
2019-01-15T18:15:36.460Z,22.87
2019-01-15T18:18:39.751Z,23.92
2019-01-15T18:21:26.708Z,20.45
2019-01-15T18:24:05.727Z,19.27
2019-01-15T18:26:51.231Z,23.25
2019-01-15T18:29:45.456Z,21.48
2019-01-15T18:32:39.539Z,21.87
2019-01-15T18:35:21.531Z,25.32
2019-01-15T18:38:27.851Z,25.15
2019-01-15T18:41:13.348Z,21.05
2019-01-15T18:44:00.281Z,25.30
2019-01-15T18:46:46.801Z,24.23
2019-01-15T18:49:31.168Z,22.32
2019-01-15T18:52:28.403Z,21.17
2019-01-15T18:55:20.837Z,25.30
2019-01-15T18:58:02.583Z,24.05
2019-01-15T19:00:50.651Z,24.07
2019-01-15T19:03:32.232Z,24.10
2019-01-15T19:06:21.051Z,23.50
2019-01-15T19:09:08.157Z,23.25
2019-01-15T19:11:46.794Z,25.23
2019-01-15T19:14:33.442Z,25.75
2019-01-15T19:17:27.568Z,25.75
2019-01-15T19:20:18.649Z,23.67
2019-01-15T19:23:06.543Z,22.15
2019-01-15T19:25:45.113Z,22.73
2019-01-15T19:28:33.186Z,22.40
2019-01-15T19:31:26.919Z,22.75
2019-01-15T19:34:13.144Z,22.00
2019-01-15T19:36:56.043Z,25.95
2019-01-15T19:39:42.497Z,21.97
2019-01-15T19:42:34.216Z,23.10
2019-01-15T19:45:22.412Z,21.70
2019-01-15T19:48:16.396Z,28.30
2019-01-15T19:51:12.849Z,24.47
2019-01-15T19:53:53.719Z,19.82
2019-01-15T19:56:40.082Z,19.20
2019-01-15T19:59:33.892Z,21.97
2019-01-15T20:02:23.321Z,20.15
2019-01-15T20:05:17.504Z,19.25
2019-01-15T20:07:57.998Z,22.60
2019-01-15T20:11:01.219Z,19.85
2019-01-15T20:13:54.906Z,18.27
2019-01-15T20:16:51.681Z,18.05
2019-01-15T20:19:39.545Z,17.10
2019-01-15T20:22:25.838Z,21.42
2019-01-15T20:25:16.482Z,20.70
2019-01-15T20:28:05.982Z,16.45
2019-01-15T20:30:56.939Z,15.90
2019-01-15T20:33:53.448Z,16.55
2019-01-15T20:36:41.329Z,17.50
2019-01-15T20:39:29.288Z,17.30
2019-01-15T20:42:15.934Z,18.95
2019-01-15T20:45:02.454Z,16.15
2019-01-15T20:47:42.132Z,13.80
2019-01-15T20:50:37.831Z,10.45
2019-01-15T20:53:14.001Z,14.53
2019-01-15T20:56:04.940Z,13.05
2019-01-15T20:58:44.462Z,13.48
2019-01-15T21:01:25.742Z,12.85
2019-01-15T21:04:12.111Z,9.58
2019-01-15T21:06:51.511Z,10.23
2019-01-15T21:09:39.438Z,10.35
2019-01-15T21:12:25.771Z,8.65
2019-01-15T21:15:09.711Z,11.60
2019-01-15T21:17:56.427Z,9.80
2019-01-15T21:20:56.713Z,7.90
2019-01-15T21:23:52.011Z,7.75
2019-01-15T21:26:32.982Z,6.58
2019-01-15T21:29:13.326Z,10.15
2019-01-15T21:32:01.267Z,8.18
2019-01-15T21:34:55.157Z,6.62
2019-01-15T21:37:34.332Z,6.78
2019-01-15T21:40:14.745Z,6.67
2019-01-15T21:43:01.323Z,7.53
2019-01-15T21:45:48.023Z,6.33
2019-01-15T21:48:39.223Z,9.40
2019-01-15T21:51:26.012Z,7.75
2019-01-15T21:54:13.671Z,9.33
2019-01-15T21:56:58.178Z,10.23
2019-01-15T21:59:49.154Z,8.28
2019-01-15T22:02:30.719Z,9.85
2019-01-15T22:05:17.147Z,8.30
2019-01-15T22:08:04.627Z,8.40
2019-01-15T22:10:51.103Z,7.45
2019-01-15T22:13:42.108Z,7.97
2019-01-15T22:16:28.450Z,9.40
2019-01-15T22:19:16.531Z,7.53
2019-01-15T22:22:04.398Z,8.48
2019-01-15T22:24:56.891Z,8.35
2019-01-15T22:27:43.651Z,9.48
2019-01-15T22:30:28.683Z,7.17
2019-01-15T22:33:15.999Z,9.50
2019-01-15T22:36:06.943Z,8.40
2019-01-15T22:38:53.436Z,9.68
2019-01-15T22:41:34.603Z,10.65
2019-01-15T22:44:27.475Z,9.40
2019-01-15T22:47:21.457Z,10.75
2019-01-15T22:50:08.490Z,7.95
2019-01-15T22:53:00.490Z,8.48
2019-01-15T22:55:54.356Z,10.05
2019-01-15T22:58:43.603Z,12.37
2019-01-15T23:01:27.308Z,9.05
2019-01-15T23:04:11.699Z,9.05
2019-01-15T23:07:02.439Z,8.53
2019-01-15T23:10:08.579Z,9.23
2019-01-15T23:12:56.731Z,7.95
2019-01-15T23:15:32.896Z,9.10
2019-01-15T23:18:16.452Z,12.25
2019-01-15T23:21:03.083Z,8.55
2019-01-15T23:23:48.746Z,11.03
2019-01-15T23:26:35.369Z,10.78
2019-01-15T23:29:21.924Z,11.53
2019-01-15T23:31:58.835Z,12.13
2019-01-15T23:35:01.884Z,11.35
2019-01-15T23:37:44.471Z,11.93
2019-01-15T23:40:31.250Z,9.30
2019-01-15T23:43:13.695Z,11.15
2019-01-15T23:46:02.515Z,11.15
2019-01-15T23:48:50.423Z,10.03
2019-01-15T23:51:41.101Z,11.50
2019-01-15T23:54:27.947Z,9.80
2019-01-15T23:57:20.902Z,11.65
